sensor_id;sensor_type;location;lat;lon;timestamp;pressure;altitude;pressure_sealevel;temperature;humidity
65384;BME280;51986;52.788;41.368;2023-04-29T00:01:42;98661.56;;;16.53;41.04
65384;BME280;51986;52.788;41.368;2023-04-29T00:04:09;98635.69;;;16.44;40.59
65384;BME280;51986;52.788;41.368;2023-04-29T00:06:36;98677.53;;;16.53;40.41
65384;BME280;51986;52.788;41.368;2023-04-29T00:09:03;98656.25;;;16.35;41.15
65384;BME280;51986;52.788;41.368;2023-04-29T00:11:31;98684.94;;;16.31;40.92
65384;BME280;51986;52.788;41.368;2023-04-29T00:13:59;98656.25;;;16.44;41.03
65384;BME280;51986;52.788;41.368;2023-04-29T00:16:28;98649.47;;;16.34;40.78
65384;BME280;51986;52.788;41.368;2023-04-29T00:18:55;98665.84;;;16.41;41.01
65384;BME280;51986;52.788;41.368;2023-04-29T00:21:26;98657.13;;;16.32;40.79
65384;BME280;51986;52.788;41.368;2023-04-29T00:24:09;98672.38;;;16.31;40.88
65384;BME280;51986;52.788;41.368;2023-04-29T00:26:36;98657.13;;;16.41;41.52
65384;BME280;51986;52.788;41.368;2023-04-29T00:29:03;98665.28;;;16.37;41.16
65384;BME280;51986;52.788;41.368;2023-04-29T00:31:42;98644.00;;;16.19;41.28
65384;BME280;51986;52.788;41.368;2023-04-29T00:34:29;98667.78;;;16.23;41.58
65384;BME280;51986;52.788;41.368;2023-04-29T00:36:56;98637.94;;;16.09;41.67
65384;BME280;51986;52.788;41.368;2023-04-29T00:39:46;98645.19;;;16.09;42.08
65384;BME280;51986;52.788;41.368;2023-04-29T00:42:14;98641.34;;;16.10;42.05
65384;BME280;51986;52.788;41.368;2023-04-29T00:44:40;98632.31;;;15.98;42.26
65384;BME280;51986;52.788;41.368;2023-04-29T00:47:07;98642.81;;;16.02;42.15
65384;BME280;51986;52.788;41.368;2023-04-29T00:49:34;98651.22;;;15.91;42.38
65384;BME280;51986;52.788;41.368;2023-04-29T00:52:01;98640.13;;;15.92;42.58
65384;BME280;51986;52.788;41.368;2023-04-29T00:54:28;98641.03;;;15.80;42.84
65384;BME280;51986;52.788;41.368;2023-04-29T00:56:57;98648.56;;;15.91;43.00
65384;BME280;51986;52.788;41.368;2023-04-29T00:59:25;98634.97;;;15.89;42.75
65384;BME280;51986;52.788;41.368;2023-04-29T01:01:52;98652.25;;;15.93;42.90
65384;BME280;51986;52.788;41.368;2023-04-29T01:04:20;98629.50;;;15.74;43.14
65384;BME280;51986;52.788;41.368;2023-04-29T01:07:16;98624.63;;;15.73;43.16
65384;BME280;51986;52.788;41.368;2023-04-29T01:15:31;98628.59;;;15.59;43.48
65384;BME280;51986;52.788;41.368;2023-04-29T01:18:03;98616.34;;;15.52;43.52
65384;BME280;51986;52.788;41.368;2023-04-29T01:20:31;98588.28;;;15.51;43.55
65384;BME280;51986;52.788;41.368;2023-04-29T01:22:58;98619.88;;;15.49;43.77
65384;BME280;51986;52.788;41.368;2023-04-29T01:25:26;98607.63;;;15.52;43.69
65384;BME280;51986;52.788;41.368;2023-04-29T01:28:20;98632.28;;;15.52;43.77
65384;BME280;51986;52.788;41.368;2023-04-29T01:30:55;98705.78;;;15.37;44.82
65384;BME280;51986;52.788;41.368;2023-04-29T01:33:44;98696.06;;;15.21;46.05
65384;BME280;51986;52.788;41.368;2023-04-29T01:39:45;98678.94;;;14.82;46.77
65384;BME280;51986;52.788;41.368;2023-04-29T01:42:26;98695.88;;;15.06;45.99
65384;BME280;51986;52.788;41.368;2023-04-29T01:44:59;98685.03;;;14.91;45.95
65384;BME280;51986;52.788;41.368;2023-04-29T01:47:28;98674.28;;;14.95;46.25
65384;BME280;51986;52.788;41.368;2023-04-29T01:49:55;98682.97;;;15.27;45.69
65384;BME280;51986;52.788;41.368;2023-04-29T01:52:22;98703.69;;;15.41;46.48
65384;BME280;51986;52.788;41.368;2023-04-29T01:54:54;98704.88;;;15.40;45.61
65384;BME280;51986;52.788;41.368;2023-04-29T01:57:23;98709.59;;;15.36;46.17
65384;BME280;51986;52.788;41.368;2023-04-29T02:00:06;98703.56;;;15.45;45.76
65384;BME280;51986;52.788;41.368;2023-04-29T02:02:43;98692.06;;;15.48;45.83
65384;BME280;51986;52.788;41.368;2023-04-29T02:05:33;98708.22;;;15.62;45.59
65384;BME280;51986;52.788;41.368;2023-04-29T02:08:01;98693.25;;;15.47;45.86
65384;BME280;51986;52.788;41.368;2023-04-29T02:10:30;98680.72;;;15.56;45.75
65384;BME280;51986;52.788;41.368;2023-04-29T02:13:20;98681.34;;;15.79;45.46
65384;BME280;51986;52.788;41.368;2023-04-29T02:15:48;98708.69;;;15.88;45.68
65384;BME280;51986;52.788;41.368;2023-04-29T02:18:15;98694.06;;;15.84;44.99
65384;BME280;51986;52.788;41.368;2023-04-29T02:20:42;98693.47;;;15.71;45.50
65384;BME280;51986;52.788;41.368;2023-04-29T02:23:09;98717.69;;;15.73;45.29
65384;BME280;51986;52.788;41.368;2023-04-29T02:25:37;98709.28;;;15.83;44.94
65384;BME280;51986;52.788;41.368;2023-04-29T02:28:04;98732.22;;;15.90;44.86
65384;BME280;51986;52.788;41.368;2023-04-29T02:30:31;98697.63;;;15.81;45.09
65384;BME280;51986;52.788;41.368;2023-04-29T02:32:58;98704.44;;;15.91;45.00
65384;BME280;51986;52.788;41.368;2023-04-29T02:35:25;98692.00;;;15.97;44.17
65384;BME280;51986;52.788;41.368;2023-04-29T02:37:53;98697.63;;;16.17;43.95
65384;BME280;51986;52.788;41.368;2023-04-29T02:40:19;98688.31;;;16.22;44.04
65384;BME280;51986;52.788;41.368;2023-04-29T02:42:46;98701.06;;;16.27;44.31
65384;BME280;51986;52.788;41.368;2023-04-29T02:45:14;98711.09;;;16.14;44.41
65384;BME280;51986;52.788;41.368;2023-04-29T02:47:41;98699.41;;;16.11;44.09
65384;BME280;51986;52.788;41.368;2023-04-29T02:50:08;98689.38;;;16.15;44.18
65384;BME280;51986;52.788;41.368;2023-04-29T02:52:35;98713.63;;;16.27;43.63
65384;BME280;51986;52.788;41.368;2023-04-29T02:55:02;98721.59;;;16.27;43.98
65384;BME280;51986;52.788;41.368;2023-04-29T02:57:29;98711.38;;;16.16;44.08
65384;BME280;51986;52.788;41.368;2023-04-29T02:59:56;98724.28;;;16.27;43.92
65384;BME280;51986;52.788;41.368;2023-04-29T03:02:22;98723.66;;;16.13;44.17
65384;BME280;51986;52.788;41.368;2023-04-29T03:04:55;98720.69;;;16.11;44.25
65384;BME280;51986;52.788;41.368;2023-04-29T03:07:22;98720.13;;;16.26;44.05
65384;BME280;51986;52.788;41.368;2023-04-29T03:09:51;98728.38;;;16.09;44.11
65384;BME280;51986;52.788;41.368;2023-04-29T03:12:18;98717.75;;;16.09;44.60
65384;BME280;51986;52.788;41.368;2023-04-29T03:14:45;98712.44;;;16.18;44.64
65384;BME280;51986;52.788;41.368;2023-04-29T03:17:12;98711.53;;;16.12;44.29
65384;BME280;51986;52.788;41.368;2023-04-29T03:19:41;98716.84;;;16.22;44.21
65384;BME280;51986;52.788;41.368;2023-04-29T03:22:08;98703.84;;;16.14;44.85
65384;BME280;51986;52.788;41.368;2023-04-29T03:24:35;98728.69;;;16.20;44.75
65384;BME280;51986;52.788;41.368;2023-04-29T03:27:02;98722.78;;;16.26;44.67
65384;BME280;51986;52.788;41.368;2023-04-29T03:29:31;98701.81;;;16.28;44.41
65384;BME280;51986;52.788;41.368;2023-04-29T03:31:58;98713.59;;;16.17;44.57
65384;BME280;51986;52.788;41.368;2023-04-29T03:34:25;98705.03;;;15.95;44.63
65384;BME280;51986;52.788;41.368;2023-04-29T03:37:08;98695.56;;;16.12;44.58
65384;BME280;51986;52.788;41.368;2023-04-29T03:39:38;98709.75;;;16.09;44.42
65384;BME280;51986;52.788;41.368;2023-04-29T03:42:05;98706.56;;;16.24;44.63
65384;BME280;51986;52.788;41.368;2023-04-29T03:44:32;98694.41;;;16.13;44.28
65384;BME280;51986;52.788;41.368;2023-04-29T03:46:59;98720.41;;;16.18;44.51
65384;BME280;51986;52.788;41.368;2023-04-29T03:49:26;98688.78;;;16.20;44.30
65384;BME280;51986;52.788;41.368;2023-04-29T03:51:53;98710.69;;;16.34;44.06
65384;BME280;51986;52.788;41.368;2023-04-29T03:54:20;98749.28;;;16.38;44.23
65384;BME280;51986;52.788;41.368;2023-04-29T03:56:47;98714.94;;;16.50;43.88
65384;BME280;51986;52.788;41.368;2023-04-29T03:59:14;98697.22;;;16.28;44.13
65384;BME280;51986;52.788;41.368;2023-04-29T04:01:41;98708.28;;;16.54;43.66
65384;BME280;51986;52.788;41.368;2023-04-29T04:04:10;98702.09;;;16.48;44.08
65384;BME280;51986;52.788;41.368;2023-04-29T04:06:41;98690.59;;;16.33;44.04
65384;BME280;51986;52.788;41.368;2023-04-29T04:09:09;98730.63;;;16.66;43.92
65384;BME280;51986;52.788;41.368;2023-04-29T04:11:36;98717.75;;;16.55;43.88
65384;BME280;51986;52.788;41.368;2023-04-29T04:14:03;98734.31;;;16.50;43.86
65384;BME280;51986;52.788;41.368;2023-04-29T04:16:30;98715.53;;;16.54;43.91
65384;BME280;51986;52.788;41.368;2023-04-29T04:18:58;98733.13;;;16.51;44.05
65384;BME280;51986;52.788;41.368;2023-04-29T04:21:25;98741.44;;;16.35;44.46
65384;BME280;51986;52.788;41.368;2023-04-29T04:23:59;98727.34;;;16.16;44.77
65384;BME280;51986;52.788;41.368;2023-04-29T04:26:28;98741.28;;;16.29;44.93
65384;BME280;51986;52.788;41.368;2023-04-29T04:29:20;98745.13;;;16.28;44.54
65384;BME280;51986;52.788;41.368;2023-04-29T04:31:59;98744.81;;;16.35;44.98
65384;BME280;51986;52.788;41.368;2023-04-29T04:34:26;98753.22;;;16.15;45.43
65384;BME280;51986;52.788;41.368;2023-04-29T04:36:55;98752.47;;;16.15;45.80
65384;BME280;51986;52.788;41.368;2023-04-29T04:39:23;98760.91;;;16.04;46.01
65384;BME280;51986;52.788;41.368;2023-04-29T04:41:51;98783.06;;;16.01;46.03
65384;BME280;51986;52.788;41.368;2023-04-29T04:44:19;98792.63;;;15.89;47.50
65384;BME280;51986;52.788;41.368;2023-04-29T04:46:55;98789.25;;;15.98;47.24
65384;BME280;51986;52.788;41.368;2023-04-29T04:49:43;98781.69;;;15.87;47.91
65384;BME280;51986;52.788;41.368;2023-04-29T04:52:10;98773.69;;;15.78;48.81
65384;BME280;51986;52.788;41.368;2023-04-29T04:54:38;98760.25;;;15.82;49.00
65384;BME280;51986;52.788;41.368;2023-04-29T04:57:13;98785.66;;;15.83;49.95
65384;BME280;51986;52.788;41.368;2023-04-29T04:59:40;98782.03;;;15.58;51.98
65384;BME280;51986;52.788;41.368;2023-04-29T05:02:08;98758.34;;;15.42;51.70
65384;BME280;51986;52.788;41.368;2023-04-29T05:04:35;98749.78;;;15.38;52.20
65384;BME280;51986;52.788;41.368;2023-04-29T05:07:02;98753.19;;;15.48;52.32
65384;BME280;51986;52.788;41.368;2023-04-29T05:09:43;98783.13;;;15.39;52.81
65384;BME280;51986;52.788;41.368;2023-04-29T05:12:10;98764.75;;;15.23;52.48
65384;BME280;51986;52.788;41.368;2023-04-29T05:14:38;98778.69;;;15.36;53.06
65384;BME280;51986;52.788;41.368;2023-04-29T05:17:06;98764.25;;;15.37;52.37
65384;BME280;51986;52.788;41.368;2023-04-29T05:19:33;98732.94;;;15.32;52.03
65384;BME280;51986;52.788;41.368;2023-04-29T05:22:00;98757.63;;;15.51;52.22
65384;BME280;51986;52.788;41.368;2023-04-29T05:24:28;98733.91;;;15.56;52.40
65384;BME280;51986;52.788;41.368;2023-04-29T05:26:55;98748.56;;;15.70;51.79
65384;BME280;51986;52.788;41.368;2023-04-29T05:29:22;98751.09;;;15.83;51.97
65384;BME280;51986;52.788;41.368;2023-04-29T05:31:54;98754.63;;;15.89;51.81
65384;BME280;51986;52.788;41.368;2023-04-29T05:34:22;98753.03;;;15.91;52.52
65384;BME280;51986;52.788;41.368;2023-04-29T05:36:51;98762.25;;;16.09;52.51
65384;BME280;51986;52.788;41.368;2023-04-29T05:39:20;98779.44;;;16.35;52.04
65384;BME280;51986;52.788;41.368;2023-04-29T05:42:01;98744.69;;;16.66;50.71
65384;BME280;51986;52.788;41.368;2023-04-29T05:44:40;98745.91;;;17.17;49.79
65384;BME280;51986;52.788;41.368;2023-04-29T05:47:09;98773.16;;;17.63;48.86
65384;BME280;51986;52.788;41.368;2023-04-29T05:49:38;98769.47;;;18.09;48.96
65384;BME280;51986;52.788;41.368;2023-04-29T05:52:05;98762.47;;;18.59;47.63
65384;BME280;51986;52.788;41.368;2023-04-29T05:54:38;98752.75;;;19.15;46.11
65384;BME280;51986;52.788;41.368;2023-04-29T05:57:05;98748.03;;;19.25;46.70
65384;BME280;51986;52.788;41.368;2023-04-29T05:59:32;98744.94;;;20.02;45.96
65384;BME280;51986;52.788;41.368;2023-04-29T06:02:05;98766.91;;;20.27;46.82
65384;BME280;51986;52.788;41.368;2023-04-29T06:04:37;98761.81;;;20.09;44.84
65384;BME280;51986;52.788;41.368;2023-04-29T06:07:23;98749.25;;;20.61;44.82
65384;BME280;51986;52.788;41.368;2023-04-29T06:09:58;98764.84;;;21.20;43.91
65384;BME280;51986;52.788;41.368;2023-04-29T06:12:26;98750.69;;;21.46;43.00
65384;BME280;51986;52.788;41.368;2023-04-29T06:14:53;98761.56;;;21.37;42.57
65384;BME280;51986;52.788;41.368;2023-04-29T06:17:20;98758.22;;;21.16;43.34
65384;BME280;51986;52.788;41.368;2023-04-29T06:20:06;98765.09;;;21.54;43.36
65384;BME280;51986;52.788;41.368;2023-04-29T06:22:33;98752.75;;;21.73;42.63
65384;BME280;51986;52.788;41.368;2023-04-29T06:25:03;98773.47;;;21.67;43.08
65384;BME280;51986;52.788;41.368;2023-04-29T06:27:43;98762.41;;;21.54;42.77
65384;BME280;51986;52.788;41.368;2023-04-29T06:30:10;98790.03;;;21.60;42.73
65384;BME280;51986;52.788;41.368;2023-04-29T06:32:38;98776.31;;;21.95;43.40
65384;BME280;51986;52.788;41.368;2023-04-29T06:35:06;98767.75;;;21.97;42.60
65384;BME280;51986;52.788;41.368;2023-04-29T06:37:54;98746.97;;;21.86;42.36
65384;BME280;51986;52.788;41.368;2023-04-29T06:40:33;98767.19;;;21.76;42.78
65384;BME280;51986;52.788;41.368;2023-04-29T06:43:24;98739.91;;;21.89;43.01
65384;BME280;51986;52.788;41.368;2023-04-29T06:46:17;98772.56;;;21.82;42.51
65384;BME280;51986;52.788;41.368;2023-04-29T06:48:59;98779.50;;;22.05;42.54
65384;BME280;51986;52.788;41.368;2023-04-29T06:51:26;98760.47;;;22.03;42.27
65384;BME280;51986;52.788;41.368;2023-04-29T06:53:53;98781.63;;;21.84;42.38
65384;BME280;51986;52.788;41.368;2023-04-29T06:56:20;98770.91;;;21.47;43.13
65384;BME280;51986;52.788;41.368;2023-04-29T07:01:34;98778.19;;;22.38;42.37
65384;BME280;51986;52.788;41.368;2023-04-29T07:04:01;98801.50;;;22.80;41.25
65384;BME280;51986;52.788;41.368;2023-04-29T07:06:28;98806.50;;;22.27;40.52
65384;BME280;51986;52.788;41.368;2023-04-29T07:08:55;98796.34;;;22.65;41.37
65384;BME280;51986;52.788;41.368;2023-04-29T07:11:23;98815.13;;;22.54;40.78
65384;BME280;51986;52.788;41.368;2023-04-29T07:14:08;98790.19;;;22.53;41.71
65384;BME280;51986;52.788;41.368;2023-04-29T07:16:35;98793.16;;;22.78;41.37
65384;BME280;51986;52.788;41.368;2023-04-29T07:19:08;98796.75;;;22.36;41.37
65384;BME280;51986;52.788;41.368;2023-04-29T07:21:35;98797.75;;;21.90;41.77
65384;BME280;51986;52.788;41.368;2023-04-29T07:24:03;98797.00;;;21.84;41.91
65384;BME280;51986;52.788;41.368;2023-04-29T07:26:30;98802.72;;;22.08;42.10
65384;BME280;51986;52.788;41.368;2023-04-29T07:28:57;98810.22;;;21.93;42.04
65384;BME280;51986;52.788;41.368;2023-04-29T07:31:27;98826.63;;;22.06;42.34
65384;BME280;51986;52.788;41.368;2023-04-29T07:33:54;98780.91;;;21.89;42.55
65384;BME280;51986;52.788;41.368;2023-04-29T07:36:21;98785.50;;;21.83;42.16
65384;BME280;51986;52.788;41.368;2023-04-29T07:38:48;98830.97;;;21.92;42.62
65384;BME280;51986;52.788;41.368;2023-04-29T07:41:16;98821.56;;;21.71;42.11
65384;BME280;51986;52.788;41.368;2023-04-29T07:43:43;98828.72;;;21.79;42.24
65384;BME280;51986;52.788;41.368;2023-04-29T07:46:09;98823.22;;;21.63;42.22
65384;BME280;51986;52.788;41.368;2023-04-29T07:48:39;98822.53;;;21.73;42.37
65384;BME280;51986;52.788;41.368;2023-04-29T07:51:06;98792.16;;;21.50;42.61
65384;BME280;51986;52.788;41.368;2023-04-29T07:53:38;98835.53;;;21.80;42.15
65384;BME280;51986;52.788;41.368;2023-04-29T07:56:06;98829.03;;;21.93;41.88
65384;BME280;51986;52.788;41.368;2023-04-29T07:58:33;98818.03;;;21.91;41.46
65384;BME280;51986;52.788;41.368;2023-04-29T08:01:05;98837.53;;;22.34;41.32
65384;BME280;51986;52.788;41.368;2023-04-29T08:03:32;98826.81;;;22.45;41.34
65384;BME280;51986;52.788;41.368;2023-04-29T08:06:06;98836.03;;;23.15;40.57
65384;BME280;51986;52.788;41.368;2023-04-29T08:08:34;98841.66;;;23.40;39.72
65384;BME280;51986;52.788;41.368;2023-04-29T08:11:01;98857.06;;;23.00;40.63
65384;BME280;51986;52.788;41.368;2023-04-29T08:13:28;98816.91;;;22.79;40.35
65384;BME280;51986;52.788;41.368;2023-04-29T08:15:55;98841.56;;;22.83;40.18
65384;BME280;51986;52.788;41.368;2023-04-29T08:18:22;98818.38;;;22.80;40.40
65384;BME280;51986;52.788;41.368;2023-04-29T08:20:49;98847.38;;;22.54;40.86
65384;BME280;51986;52.788;41.368;2023-04-29T08:23:16;98849.22;;;22.31;41.32
65384;BME280;51986;52.788;41.368;2023-04-29T08:25:43;98840.56;;;22.04;41.50
65384;BME280;51986;52.788;41.368;2023-04-29T08:28:10;98847.81;;;21.93;42.22
65384;BME280;51986;52.788;41.368;2023-04-29T08:30:40;98836.75;;;21.79;42.04
65384;BME280;51986;52.788;41.368;2023-04-29T08:33:07;98874.53;;;22.13;42.67
65384;BME280;51986;52.788;41.368;2023-04-29T08:35:35;98837.03;;;21.87;42.66
65384;BME280;51986;52.788;41.368;2023-04-29T08:38:05;98860.13;;;21.73;43.20
65384;BME280;51986;52.788;41.368;2023-04-29T08:40:40;98855.56;;;21.79;43.08
65384;BME280;51986;52.788;41.368;2023-04-29T08:43:17;98865.69;;;21.64;43.14
65384;BME280;51986;52.788;41.368;2023-04-29T08:45:51;98839.19;;;21.40;43.35
65384;BME280;51986;52.788;41.368;2023-04-29T08:48:18;98870.88;;;21.73;43.34
65384;BME280;51986;52.788;41.368;2023-04-29T08:50:51;98861.09;;;21.39;43.52
65384;BME280;51986;52.788;41.368;2023-04-29T08:53:20;98840.06;;;21.06;46.14
65384;BME280;51986;52.788;41.368;2023-04-29T08:55:47;98862.63;;;21.19;45.18
65384;BME280;51986;52.788;41.368;2023-04-29T08:58:15;98867.66;;;21.38;45.39
65384;BME280;51986;52.788;41.368;2023-04-29T09:00:42;98858.81;;;21.06;45.67
65384;BME280;51986;52.788;41.368;2023-04-29T09:05:58;98842.91;;;21.22;45.44
65384;BME280;51986;52.788;41.368;2023-04-29T09:08:29;98856.97;;;20.91;46.11
65384;BME280;51986;52.788;41.368;2023-04-29T09:10:58;98877.44;;;20.89;46.45
65384;BME280;51986;52.788;41.368;2023-04-29T09:13:36;98867.00;;;20.70;47.17
65384;BME280;51986;52.788;41.368;2023-04-29T09:16:10;98875.28;;;20.52;48.32
65384;BME280;51986;52.788;41.368;2023-04-29T09:19:02;98869.53;;;20.59;47.64
65384;BME280;51986;52.788;41.368;2023-04-29T09:21:29;98854.94;;;20.60;47.18
65384;BME280;51986;52.788;41.368;2023-04-29T09:24:24;98888.44;;;21.17;46.70
65384;BME280;51986;52.788;41.368;2023-04-29T09:26:51;98887.38;;;21.09;46.85
65384;BME280;51986;52.788;41.368;2023-04-29T09:29:19;98886.97;;;20.90;47.23
65384;BME280;51986;52.788;41.368;2023-04-29T09:31:46;98903.16;;;20.60;48.06
65384;BME280;51986;52.788;41.368;2023-04-29T09:34:14;98896.03;;;20.16;49.42
65384;BME280;51986;52.788;41.368;2023-04-29T09:36:49;98891.00;;;19.74;51.35
65384;BME280;51986;52.788;41.368;2023-04-29T09:39:20;98909.38;;;19.37;52.37
65384;BME280;51986;52.788;41.368;2023-04-29T09:44:23;98919.34;;;19.36;52.43
65384;BME280;51986;52.788;41.368;2023-04-29T09:46:58;98904.75;;;19.52;51.50
65384;BME280;51986;52.788;41.368;2023-04-29T09:49:36;98904.59;;;19.56;50.65
65384;BME280;51986;52.788;41.368;2023-04-29T09:52:13;98908.16;;;19.38;51.07
65384;BME280;51986;52.788;41.368;2023-04-29T09:54:41;98915.09;;;19.30;50.81
65384;BME280;51986;52.788;41.368;2023-04-29T09:57:10;98923.41;;;19.61;50.43
65384;BME280;51986;52.788;41.368;2023-04-29T09:59:57;98945.44;;;19.41;50.09
65384;BME280;51986;52.788;41.368;2023-04-29T10:02:26;98947.28;;;19.35;50.43
65384;BME280;51986;52.788;41.368;2023-04-29T10:04:53;98947.69;;;19.04;50.55
65384;BME280;51986;52.788;41.368;2023-04-29T10:07:21;98935.88;;;18.72;50.86
65384;BME280;51986;52.788;41.368;2023-04-29T10:09:48;98950.34;;;18.56;50.08
65384;BME280;51986;52.788;41.368;2023-04-29T10:12:34;98980.44;;;18.23;51.12
65384;BME280;51986;52.788;41.368;2023-04-29T10:15:04;98984.66;;;18.06;50.66
65384;BME280;51986;52.788;41.368;2023-04-29T10:18:17;99002.03;;;17.92;51.74
65384;BME280;51986;52.788;41.368;2023-04-29T10:20:50;98942.84;;;17.24;52.50
65384;BME280;51986;52.788;41.368;2023-04-29T10:23:20;98978.47;;;17.08;53.06
65384;BME280;51986;52.788;41.368;2023-04-29T10:25:51;98953.88;;;16.77;53.71
65384;BME280;51986;52.788;41.368;2023-04-29T10:28:22;98983.19;;;16.77;54.25
65384;BME280;51986;52.788;41.368;2023-04-29T10:30:50;98957.88;;;16.32;54.83
65384;BME280;51986;52.788;41.368;2023-04-29T10:33:20;98964.91;;;16.16;55.46
65384;BME280;51986;52.788;41.368;2023-04-29T10:35:48;98984.25;;;16.17;55.90
65384;BME280;51986;52.788;41.368;2023-04-29T10:38:34;98989.75;;;16.44;55.76
65384;BME280;51986;52.788;41.368;2023-04-29T10:41:25;98983.00;;;16.62;54.66
65384;BME280;51986;52.788;41.368;2023-04-29T10:43:53;98982.31;;;16.39;55.54
65384;BME280;51986;52.788;41.368;2023-04-29T10:46:22;98974.50;;;16.45;55.17
65384;BME280;51986;52.788;41.368;2023-04-29T10:48:55;98984.19;;;16.70;54.72
65384;BME280;51986;52.788;41.368;2023-04-29T10:51:34;98965.66;;;17.25;53.61
65384;BME280;51986;52.788;41.368;2023-04-29T10:56:37;99000.84;;;17.11;53.42
65384;BME280;51986;52.788;41.368;2023-04-29T11:01:59;98976.75;;;17.24;52.10
65384;BME280;51986;52.788;41.368;2023-04-29T11:04:26;98979.53;;;17.57;51.53
65384;BME280;51986;52.788;41.368;2023-04-29T11:06:57;98950.22;;;17.02;52.47
65384;BME280;51986;52.788;41.368;2023-04-29T11:14:28;99000.16;;;17.38;51.62
65384;BME280;51986;52.788;41.368;2023-04-29T11:17:01;98985.19;;;17.22;51.81
65384;BME280;51986;52.788;41.368;2023-04-29T11:19:34;99002.19;;;17.15;51.06
65384;BME280;51986;52.788;41.368;2023-04-29T11:25:05;99033.53;;;16.93;52.16
65384;BME280;51986;52.788;41.368;2023-04-29T11:27:35;99000.47;;;16.72;53.11
65384;BME280;51986;52.788;41.368;2023-04-29T11:32:48;99013.44;;;16.52;52.76
65384;BME280;51986;52.788;41.368;2023-04-29T11:35:17;99017.00;;;16.58;52.47
65384;BME280;51986;52.788;41.368;2023-04-29T11:37:45;99014.22;;;16.61;52.30
65384;BME280;51986;52.788;41.368;2023-04-29T11:40:13;99001.03;;;16.27;52.58
65384;BME280;51986;52.788;41.368;2023-04-29T11:42:43;99013.22;;;16.37;52.37
65384;BME280;51986;52.788;41.368;2023-04-29T11:45:11;99016.59;;;16.68;52.05
65384;BME280;51986;52.788;41.368;2023-04-29T11:47:56;99064.84;;;16.70;51.87
65384;BME280;51986;52.788;41.368;2023-04-29T11:50:24;99031.03;;;16.99;50.73
65384;BME280;51986;52.788;41.368;2023-04-29T11:52:51;99035.16;;;16.50;51.76
65384;BME280;51986;52.788;41.368;2023-04-29T11:55:18;99051.63;;;16.58;52.01
65384;BME280;51986;52.788;41.368;2023-04-29T11:58:04;99067.59;;;16.58;52.07
65384;BME280;51986;52.788;41.368;2023-04-29T12:00:31;99070.34;;;16.45;51.69
65384;BME280;51986;52.788;41.368;2023-04-29T12:02:58;99153.44;;;16.62;51.44
65384;BME280;51986;52.788;41.368;2023-04-29T12:05:25;99065.09;;;16.63;51.42
65384;BME280;51986;52.788;41.368;2023-04-29T12:07:56;99069.75;;;16.19;51.83
65384;BME280;51986;52.788;41.368;2023-04-29T12:10:23;99066.53;;;16.24;52.15
65384;BME280;51986;52.788;41.368;2023-04-29T12:12:50;99069.03;;;15.84;53.42
65384;BME280;51986;52.788;41.368;2023-04-29T12:15:17;99087.31;;;15.94;52.10
65384;BME280;51986;52.788;41.368;2023-04-29T12:17:44;99101.50;;;16.13;51.80
65384;BME280;51986;52.788;41.368;2023-04-29T12:20:30;99134.94;;;15.80;52.82
65384;BME280;51986;52.788;41.368;2023-04-29T12:23:16;99130.19;;;15.62;53.19
65384;BME280;51986;52.788;41.368;2023-04-29T12:25:53;99118.00;;;15.39;53.16
65384;BME280;51986;52.788;41.368;2023-04-29T12:28:21;99122.25;;;14.98;54.07
65384;BME280;51986;52.788;41.368;2023-04-29T12:30:50;99119.72;;;14.95;54.26
65384;BME280;51986;52.788;41.368;2023-04-29T12:33:22;99118.44;;;14.99;54.47
65384;BME280;51986;52.788;41.368;2023-04-29T12:35:50;99149.31;;;14.93;54.00
65384;BME280;51986;52.788;41.368;2023-04-29T12:40:52;99132.88;;;14.85;54.66
65384;BME280;51986;52.788;41.368;2023-04-29T12:43:24;99147.38;;;14.68;55.00
65384;BME280;51986;52.788;41.368;2023-04-29T12:45:53;99119.97;;;14.46;55.37
65384;BME280;51986;52.788;41.368;2023-04-29T12:48:20;99130.47;;;14.49;55.26
65384;BME280;51986;52.788;41.368;2023-04-29T12:50:56;99090.19;;;13.96;56.63
65384;BME280;51986;52.788;41.368;2023-04-29T12:53:24;99111.22;;;14.03;56.83
65384;BME280;51986;52.788;41.368;2023-04-29T12:55:52;99134.13;;;13.81;56.79
65384;BME280;51986;52.788;41.368;2023-04-29T12:58:19;99144.41;;;13.79;57.46
65384;BME280;51986;52.788;41.368;2023-04-29T13:00:48;99131.00;;;13.53;57.20
65384;BME280;51986;52.788;41.368;2023-04-29T13:03:15;99133.66;;;13.70;56.60
65384;BME280;51986;52.788;41.368;2023-04-29T13:05:45;99124.06;;;13.27;57.68
65384;BME280;51986;52.788;41.368;2023-04-29T13:08:12;99129.50;;;13.03;58.73
65384;BME280;51986;52.788;41.368;2023-04-29T13:10:39;99100.28;;;12.87;58.86
65384;BME280;51986;52.788;41.368;2023-04-29T13:13:06;99138.31;;;12.41;60.37
65384;BME280;51986;52.788;41.368;2023-04-29T13:15:33;99144.19;;;12.68;59.46
65384;BME280;51986;52.788;41.368;2023-04-29T13:18:00;99142.69;;;12.47;60.19
65384;BME280;51986;52.788;41.368;2023-04-29T13:20:28;99152.47;;;12.50;60.25
65384;BME280;51986;52.788;41.368;2023-04-29T13:22:55;99152.84;;;12.29;60.94
65384;BME280;51986;52.788;41.368;2023-04-29T13:25:22;99151.84;;;12.43;60.68
65384;BME280;51986;52.788;41.368;2023-04-29T13:27:49;99147.94;;;12.31;60.83
65384;BME280;51986;52.788;41.368;2023-04-29T13:30:16;99140.72;;;12.31;60.16
65384;BME280;51986;52.788;41.368;2023-04-29T13:32:43;99107.16;;;12.08;60.32
65384;BME280;51986;52.788;41.368;2023-04-29T13:35:20;99098.78;;;11.43;62.43
65384;BME280;51986;52.788;41.368;2023-04-29T13:37:47;99069.19;;;11.28;62.98
65384;BME280;51986;52.788;41.368;2023-04-29T13:40:17;99069.38;;;11.41;63.28
65384;BME280;51986;52.788;41.368;2023-04-29T13:42:47;99039.75;;;10.79;64.50
65384;BME280;51986;52.788;41.368;2023-04-29T13:45:18;99040.47;;;10.83;65.30